sensor_id;sensor_type;location;lat;lon;timestamp;pressure;altitude;pressure_sealevel;temperature;humidity
37170;BME280;23062;13.952;100.608;2022-10-16T00:04:39;755.13;;;-142.63;54.10
37170;BME280;23062;13.952;100.608;2022-10-16T00:09:29;755.17;;;-142.63;54.59
37170;BME280;23062;13.952;100.608;2022-10-16T00:14:20;755.15;;;-142.63;54.11
37170;BME280;23062;13.952;100.608;2022-10-16T00:19:11;754.97;;;-142.63;53.80
37170;BME280;23062;13.952;100.608;2022-10-16T00:24:04;755.01;;;-142.63;54.05
37170;BME280;23062;13.952;100.608;2022-10-16T00:28:55;755.27;;;-142.63;54.95
37170;BME280;23062;13.952;100.608;2022-10-16T00:33:46;755.39;;;-142.63;54.99
37170;BME280;23062;13.952;100.608;2022-10-16T00:38:37;755.70;;;-142.63;55.23
37170;BME280;23062;13.952;100.608;2022-10-16T00:43:36;755.53;;;-142.63;54.72
37170;BME280;23062;13.952;100.608;2022-10-16T00:48:27;755.67;;;-142.63;54.64
37170;BME280;23062;13.952;100.608;2022-10-16T00:53:18;755.37;;;-142.63;53.89
37170;BME280;23062;13.952;100.608;2022-10-16T00:58:08;755.66;;;-142.63;54.95
37170;BME280;23062;13.952;100.608;2022-10-16T01:03:00;755.93;;;-142.63;55.15
37170;BME280;23062;13.952;100.608;2022-10-16T01:13:01;756.16;;;-142.63;55.58
37170;BME280;23062;13.952;100.608;2022-10-16T01:17:53;755.98;;;-142.63;55.36
37170;BME280;23062;13.952;100.608;2022-10-16T01:23:10;756.19;;;-142.63;55.76
37170;BME280;23062;13.952;100.608;2022-10-16T01:28:01;755.90;;;-142.63;55.90
37170;BME280;23062;13.952;100.608;2022-10-16T01:32:59;755.88;;;-142.63;55.94
37170;BME280;23062;13.952;100.608;2022-10-16T01:37:55;756.12;;;-142.63;55.84
37170;BME280;23062;13.952;100.608;2022-10-16T01:42:50;756.05;;;-142.63;55.50
37170;BME280;23062;13.952;100.608;2022-10-16T01:47:36;756.18;;;-142.63;54.35
37170;BME280;23062;13.952;100.608;2022-10-16T01:52:28;756.11;;;-142.63;54.40
37170;BME280;23062;13.952;100.608;2022-10-16T01:57:20;756.05;;;-142.63;54.43
37170;BME280;23062;13.952;100.608;2022-10-16T02:02:12;756.15;;;-142.63;54.14
37170;BME280;23062;13.952;100.608;2022-10-16T02:07:03;756.32;;;-142.63;54.35
37170;BME280;23062;13.952;100.608;2022-10-16T02:11:57;756.19;;;-142.63;54.05
37170;BME280;23062;13.952;100.608;2022-10-16T02:16:48;756.26;;;-142.63;54.05
37170;BME280;23062;13.952;100.608;2022-10-16T02:21:54;756.33;;;-142.63;53.73
37170;BME280;23062;13.952;100.608;2022-10-16T02:31:38;756.17;;;-142.63;54.14
37170;BME280;23062;13.952;100.608;2022-10-16T02:36:29;755.92;;;-142.63;54.29
37170;BME280;23062;13.952;100.608;2022-10-16T02:41:21;756.02;;;-142.63;54.72
37170;BME280;23062;13.952;100.608;2022-10-16T02:46:12;756.02;;;-142.63;55.19
37170;BME280;23062;13.952;100.608;2022-10-16T02:51:03;755.96;;;-142.63;55.12
37170;BME280;23062;13.952;100.608;2022-10-16T02:55:53;756.15;;;-142.63;54.94
37170;BME280;23062;13.952;100.608;2022-10-16T03:00:43;756.13;;;-142.63;54.71
37170;BME280;23062;13.952;100.608;2022-10-16T03:05:34;756.01;;;-142.63;54.13
37170;BME280;23062;13.952;100.608;2022-10-16T03:10:25;756.01;;;-142.63;54.26
37170;BME280;23062;13.952;100.608;2022-10-16T03:15:15;755.92;;;-142.63;54.08
37170;BME280;23062;13.952;100.608;2022-10-16T03:20:06;755.87;;;-142.63;54.64
37170;BME280;23062;13.952;100.608;2022-10-16T03:24:56;755.88;;;-142.63;55.21
37170;BME280;23062;13.952;100.608;2022-10-16T03:29:46;755.89;;;-142.63;55.26
37170;BME280;23062;13.952;100.608;2022-10-16T03:34:36;755.88;;;-142.63;54.52
37170;BME280;23062;13.952;100.608;2022-10-16T03:39:28;755.92;;;-142.63;55.15
37170;BME280;23062;13.952;100.608;2022-10-16T03:44:18;755.92;;;-142.63;54.59
37170;BME280;23062;13.952;100.608;2022-10-16T03:49:09;755.83;;;-142.63;54.41
37170;BME280;23062;13.952;100.608;2022-10-16T03:54:03;755.84;;;-142.63;54.22
37170;BME280;23062;13.952;100.608;2022-10-16T03:58:52;756.07;;;-142.63;54.59
37170;BME280;23062;13.952;100.608;2022-10-16T04:03:42;756.03;;;-142.63;54.80
37170;BME280;23062;13.952;100.608;2022-10-16T04:08:32;755.78;;;-142.63;54.59
37170;BME280;23062;13.952;100.608;2022-10-16T04:13:24;755.86;;;-142.63;54.57
37170;BME280;23062;13.952;100.608;2022-10-16T04:18:14;755.88;;;-142.63;54.88
37170;BME280;23062;13.952;100.608;2022-10-16T04:23:04;755.82;;;-142.63;54.57
37170;BME280;23062;13.952;100.608;2022-10-16T04:27:54;755.55;;;-142.63;54.63
37170;BME280;23062;13.952;100.608;2022-10-16T04:32:49;755.50;;;-142.63;54.59
37170;BME280;23062;13.952;100.608;2022-10-16T04:37:39;755.67;;;-142.63;54.99
37170;BME280;23062;13.952;100.608;2022-10-16T04:42:30;755.42;;;-142.63;54.94
37170;BME280;23062;13.952;100.608;2022-10-16T04:47:22;755.39;;;-142.63;54.89
37170;BME280;23062;13.952;100.608;2022-10-16T04:52:12;755.70;;;-142.63;55.15
37170;BME280;23062;13.952;100.608;2022-10-16T04:57:03;755.55;;;-142.63;54.94
37170;BME280;23062;13.952;100.608;2022-10-16T05:01:53;755.42;;;-142.63;54.75
37170;BME280;23062;13.952;100.608;2022-10-16T05:06:43;755.37;;;-142.63;54.56
37170;BME280;23062;13.952;100.608;2022-10-16T05:11:34;755.09;;;-142.63;54.05
37170;BME280;23062;13.952;100.608;2022-10-16T05:16:24;755.04;;;-142.63;53.86
37170;BME280;23062;13.952;100.608;2022-10-16T05:21:15;755.15;;;-142.63;53.76
37170;BME280;23062;13.952;100.608;2022-10-16T05:26:05;754.98;;;-142.63;53.33
37170;BME280;23062;13.952;100.608;2022-10-16T05:30:55;755.10;;;-142.63;53.50
37170;BME280;23062;13.952;100.608;2022-10-16T05:35:46;755.27;;;-142.63;52.97
37170;BME280;23062;13.952;100.608;2022-10-16T05:40:36;755.15;;;-142.63;53.03
37170;BME280;23062;13.952;100.608;2022-10-16T05:45:26;755.00;;;-142.63;53.36
37170;BME280;23062;13.952;100.608;2022-10-16T05:50:17;754.90;;;-142.63;54.20
37170;BME280;23062;13.952;100.608;2022-10-16T05:55:08;754.94;;;-142.63;54.56
37170;BME280;23062;13.952;100.608;2022-10-16T05:59:59;754.76;;;-142.63;54.32
37170;BME280;23062;13.952;100.608;2022-10-16T06:04:49;754.70;;;-142.63;54.46
37170;BME280;23062;13.952;100.608;2022-10-16T06:09:41;754.79;;;-142.63;55.10
37170;BME280;23062;13.952;100.608;2022-10-16T06:14:33;754.49;;;-142.63;54.93
37170;BME280;23062;13.952;100.608;2022-10-16T06:19:24;754.37;;;-142.63;54.96
37170;BME280;23062;13.952;100.608;2022-10-16T06:24:14;754.51;;;-142.63;55.45
37170;BME280;23062;13.952;100.608;2022-10-16T06:29:04;754.46;;;-142.63;55.11
37170;BME280;23062;13.952;100.608;2022-10-16T06:33:56;754.27;;;-142.63;54.66
37170;BME280;23062;13.952;100.608;2022-10-16T06:38:46;754.12;;;-142.63;53.99
37170;BME280;23062;13.952;100.608;2022-10-16T06:43:37;753.89;;;-142.63;53.43
37170;BME280;23062;13.952;100.608;2022-10-16T06:48:28;753.80;;;-142.63;53.36
37170;BME280;23062;13.952;100.608;2022-10-16T06:53:19;753.81;;;-142.63;53.34
37170;BME280;23062;13.952;100.608;2022-10-16T06:58:09;753.91;;;-142.63;53.30
37170;BME280;23062;13.952;100.608;2022-10-16T07:02:59;753.92;;;-142.63;53.52
37170;BME280;23062;13.952;100.608;2022-10-16T07:07:50;753.70;;;-142.63;53.36
37170;BME280;23062;13.952;100.608;2022-10-16T07:12:40;753.79;;;-142.63;53.22
37170;BME280;23062;13.952;100.608;2022-10-16T07:17:30;753.71;;;-142.63;52.85
37170;BME280;23062;13.952;100.608;2022-10-16T07:22:20;753.49;;;-142.63;52.61
37170;BME280;23062;13.952;100.608;2022-10-16T07:27:11;753.52;;;-142.63;52.74
37170;BME280;23062;13.952;100.608;2022-10-16T07:32:02;753.46;;;-142.63;52.57
37170;BME280;23062;13.952;100.608;2022-10-16T07:36:53;753.35;;;-142.63;52.74
37170;BME280;23062;13.952;100.608;2022-10-16T07:41:43;753.33;;;-142.63;52.72
37170;BME280;23062;13.952;100.608;2022-10-16T07:46:34;753.23;;;-142.63;52.93
37170;BME280;23062;13.952;100.608;2022-10-16T07:51:26;753.18;;;-142.63;52.70
37170;BME280;23062;13.952;100.608;2022-10-16T07:56:17;753.15;;;-142.63;52.45
37170;BME280;23062;13.952;100.608;2022-10-16T08:01:12;753.13;;;-142.63;52.86
37170;BME280;23062;13.952;100.608;2022-10-16T08:06:04;753.01;;;-142.63;52.78
37170;BME280;23062;13.952;100.608;2022-10-16T08:10:54;753.01;;;-142.63;53.00
37170;BME280;23062;13.952;100.608;2022-10-16T08:15:45;753.03;;;-142.63;52.75
37170;BME280;23062;13.952;100.608;2022-10-16T08:20:36;752.90;;;-142.63;52.74
37170;BME280;23062;13.952;100.608;2022-10-16T08:25:26;753.00;;;-142.63;52.83
37170;BME280;23062;13.952;100.608;2022-10-16T08:30:18;753.08;;;-142.63;53.08
37170;BME280;23062;13.952;100.608;2022-10-16T08:35:13;753.06;;;-142.63;53.44
37170;BME280;23062;13.952;100.608;2022-10-16T08:40:04;753.11;;;-142.63;53.31
37170;BME280;23062;13.952;100.608;2022-10-16T08:50:17;753.08;;;-142.63;53.63
37170;BME280;23062;13.952;100.608;2022-10-16T08:55:04;753.05;;;-142.63;53.75
37170;BME280;23062;13.952;100.608;2022-10-16T08:59:57;752.99;;;-142.63;54.17
37170;BME280;23062;13.952;100.608;2022-10-16T09:05:02;753.15;;;-142.63;54.08
37170;BME280;23062;13.952;100.608;2022-10-16T09:10:06;753.12;;;-142.63;54.05
37170;BME280;23062;13.952;100.608;2022-10-16T09:20:13;753.38;;;-142.63;54.24
37170;BME280;23062;13.952;100.608;2022-10-16T09:25:10;753.27;;;-142.63;53.97
37170;BME280;23062;13.952;100.608;2022-10-16T09:29:54;753.35;;;-142.63;54.13
37170;BME280;23062;13.952;100.608;2022-10-16T09:34:47;753.39;;;-142.63;54.03
37170;BME280;23062;13.952;100.608;2022-10-16T09:39:46;753.42;;;-142.63;54.05
37170;BME280;23062;13.952;100.608;2022-10-16T09:44:37;753.41;;;-142.63;54.26
37170;BME280;23062;13.952;100.608;2022-10-16T09:49:28;753.29;;;-142.63;54.25
37170;BME280;23062;13.952;100.608;2022-10-16T09:54:20;753.46;;;-142.63;54.32
37170;BME280;23062;13.952;100.608;2022-10-16T09:59:12;753.50;;;-142.63;54.25
37170;BME280;23062;13.952;100.608;2022-10-16T10:04:04;753.43;;;-142.63;54.28
37170;BME280;23062;13.952;100.608;2022-10-16T10:09:01;753.51;;;-142.63;54.43
37170;BME280;23062;13.952;100.608;2022-10-16T10:13:47;753.48;;;-142.63;54.20
37170;BME280;23062;13.952;100.608;2022-10-16T10:18:39;753.46;;;-142.63;54.05
37170;BME280;23062;13.952;100.608;2022-10-16T10:23:30;753.47;;;-142.63;54.46
37170;BME280;23062;13.952;100.608;2022-10-16T10:28:28;753.61;;;-142.63;54.72
37170;BME280;23062;13.952;100.608;2022-10-16T10:33:31;753.66;;;-142.63;54.94
37170;BME280;23062;13.952;100.608;2022-10-16T10:38:25;753.69;;;-142.63;55.25
37170;BME280;23062;13.952;100.608;2022-10-16T10:54:07;753.85;;;-142.63;55.36
37170;BME280;23062;13.952;100.608;2022-10-16T11:09:28;753.62;;;-142.63;55.16
37170;BME280;23062;13.952;100.608;2022-10-16T11:14:21;753.62;;;-142.63;55.00
37170;BME280;23062;13.952;100.608;2022-10-16T11:19:25;753.72;;;-142.63;55.02
37170;BME280;23062;13.952;100.608;2022-10-16T11:24:19;753.77;;;-142.63;54.95
37170;BME280;23062;13.952;100.608;2022-10-16T11:29:16;753.84;;;-142.63;55.06
37170;BME280;23062;13.952;100.608;2022-10-16T11:39:03;753.84;;;-142.63;55.21
37170;BME280;23062;13.952;100.608;2022-10-16T11:44:09;753.75;;;-142.63;55.15
37170;BME280;23062;13.952;100.608;2022-10-16T11:49:16;753.78;;;-142.63;55.44
37170;BME280;23062;13.952;100.608;2022-10-16T11:59:03;753.89;;;-142.63;55.65
37170;BME280;23062;13.952;100.608;2022-10-16T12:09:31;754.05;;;-142.63;55.85
37170;BME280;23062;13.952;100.608;2022-10-16T12:19:25;754.18;;;-142.63;55.97
37170;BME280;23062;13.952;100.608;2022-10-16T12:24:43;754.22;;;-142.63;56.29
37170;BME280;23062;13.952;100.608;2022-10-16T12:29:43;754.27;;;-142.63;55.84
37170;BME280;23062;13.952;100.608;2022-10-16T12:34:39;754.36;;;-142.63;56.03
37170;BME280;23062;13.952;100.608;2022-10-16T12:39:29;754.32;;;-142.63;55.66
37170;BME280;23062;13.952;100.608;2022-10-16T12:44:24;754.50;;;-142.63;56.17
37170;BME280;23062;13.952;100.608;2022-10-16T12:49:31;754.43;;;-142.63;56.02
37170;BME280;23062;13.952;100.608;2022-10-16T13:04:43;754.56;;;-142.63;56.22
37170;BME280;23062;13.952;100.608;2022-10-16T13:09:49;754.66;;;-142.63;56.92
37170;BME280;23062;13.952;100.608;2022-10-16T13:15:06;754.71;;;-142.63;56.81
37170;BME280;23062;13.952;100.608;2022-10-16T13:20:03;754.74;;;-142.63;56.83
37170;BME280;23062;13.952;100.608;2022-10-16T13:25:20;754.79;;;-142.63;57.19
37170;BME280;23062;13.952;100.608;2022-10-16T13:35:22;754.87;;;-142.63;57.78
37170;BME280;23062;13.952;100.608;2022-10-16T13:40:23;754.95;;;-142.63;58.22
37170;BME280;23062;13.952;100.608;2022-10-16T13:45:20;754.97;;;-142.63;58.31
37170;BME280;23062;13.952;100.608;2022-10-16T13:50:17;755.00;;;-142.63;58.46
37170;BME280;23062;13.952;100.608;2022-10-16T13:55:13;755.07;;;-142.63;58.45
37170;BME280;23062;13.952;100.608;2022-10-16T14:00:16;755.08;;;-142.63;58.79
37170;BME280;23062;13.952;100.608;2022-10-16T14:04:57;755.17;;;-142.63;58.75
37170;BME280;23062;13.952;100.608;2022-10-16T14:09:49;755.16;;;-142.63;58.64
37170;BME280;23062;13.952;100.608;2022-10-16T14:14:48;755.21;;;-142.63;58.80
37170;BME280;23062;13.952;100.608;2022-10-16T14:19:39;755.30;;;-142.63;58.96
37170;BME280;23062;13.952;100.608;2022-10-16T14:24:36;755.31;;;-142.63;59.25
37170;BME280;23062;13.952;100.608;2022-10-16T14:29:29;755.34;;;-142.63;59.49
37170;BME280;23062;13.952;100.608;2022-10-16T14:34:34;755.32;;;-142.63;59.46
37170;BME280;23062;13.952;100.608;2022-10-16T14:39:25;755.35;;;-142.63;59.65
37170;BME280;23062;13.952;100.608;2022-10-16T14:44:18;755.40;;;-142.63;59.84
37170;BME280;23062;13.952;100.608;2022-10-16T14:49:18;755.34;;;-142.63;59.81
37170;BME280;23062;13.952;100.608;2022-10-16T14:54:06;755.34;;;-142.63;59.72
37170;BME280;23062;13.952;100.608;2022-10-16T14:58:57;755.46;;;-142.63;60.21
37170;BME280;23062;13.952;100.608;2022-10-16T15:03:48;755.46;;;-142.63;60.32
37170;BME280;23062;13.952;100.608;2022-10-16T15:08:38;755.36;;;-142.63;60.13
37170;BME280;23062;13.952;100.608;2022-10-16T15:13:29;755.36;;;-142.63;60.40
37170;BME280;23062;13.952;100.608;2022-10-16T15:18:19;755.44;;;-142.63;60.64
37170;BME280;23062;13.952;100.608;2022-10-16T15:23:20;755.34;;;-142.63;60.58
37170;BME280;23062;13.952;100.608;2022-10-16T15:28:06;755.30;;;-142.63;60.77
37170;BME280;23062;13.952;100.608;2022-10-16T15:32:58;755.29;;;-142.63;60.85
37170;BME280;23062;13.952;100.608;2022-10-16T15:37:49;755.32;;;-142.63;61.02
37170;BME280;23062;13.952;100.608;2022-10-16T15:42:39;755.32;;;-142.63;61.01
37170;BME280;23062;13.952;100.608;2022-10-16T15:47:30;755.37;;;-142.63;61.36
37170;BME280;23062;13.952;100.608;2022-10-16T15:52:21;755.33;;;-142.63;61.20
37170;BME280;23062;13.952;100.608;2022-10-16T15:57:11;755.24;;;-142.63;61.14
37170;BME280;23062;13.952;100.608;2022-10-16T16:02:02;755.20;;;-142.63;61.09
37170;BME280;23062;13.952;100.608;2022-10-16T16:06:52;755.23;;;-142.63;61.33
37170;BME280;23062;13.952;100.608;2022-10-16T16:11:42;755.20;;;-142.63;61.41
37170;BME280;23062;13.952;100.608;2022-10-16T16:16:32;755.25;;;-142.63;61.60
37170;BME280;23062;13.952;100.608;2022-10-16T16:21:24;755.24;;;-142.63;61.45
37170;BME280;23062;13.952;100.608;2022-10-16T16:26:28;755.22;;;-142.63;61.43
37170;BME280;23062;13.952;100.608;2022-10-16T16:31:20;755.17;;;-142.63;61.13
37170;BME280;23062;13.952;100.608;2022-10-16T16:36:13;755.18;;;-142.63;61.41
37170;BME280;23062;13.952;100.608;2022-10-16T16:41:13;755.13;;;-142.63;61.39
37170;BME280;23062;13.952;100.608;2022-10-16T16:46:03;755.04;;;-142.63;61.19
37170;BME280;23062;13.952;100.608;2022-10-16T16:50:53;755.07;;;-142.63;61.30
37170;BME280;23062;13.952;100.608;2022-10-16T16:55:44;755.07;;;-142.63;61.37
37170;BME280;23062;13.952;100.608;2022-10-16T17:00:35;755.01;;;-142.63;61.34
37170;BME280;23062;13.952;100.608;2022-10-16T17:05:27;755.05;;;-142.63;61.72
37170;BME280;23062;13.952;100.608;2022-10-16T17:10:17;754.94;;;-142.63;61.60
37170;BME280;23062;13.952;100.608;2022-10-16T17:15:08;754.90;;;-142.63;61.59
37170;BME280;23062;13.952;100.608;2022-10-16T17:19:59;754.84;;;-142.63;61.64
37170;BME280;23062;13.952;100.608;2022-10-16T17:24:50;754.83;;;-142.63;61.62
37170;BME280;23062;13.952;100.608;2022-10-16T17:29:41;754.76;;;-142.63;61.67
37170;BME280;23062;13.952;100.608;2022-10-16T17:34:33;754.76;;;-142.63;61.80
37170;BME280;23062;13.952;100.608;2022-10-16T17:39:23;754.76;;;-142.63;61.68
37170;BME280;23062;13.952;100.608;2022-10-16T17:44:14;754.74;;;-142.63;61.68
37170;BME280;23062;13.952;100.608;2022-10-16T17:49:05;754.73;;;-142.63;61.73
37170;BME280;23062;13.952;100.608;2022-10-16T17:53:57;754.74;;;-142.63;61.88
37170;BME280;23062;13.952;100.608;2022-10-16T17:58:49;754.70;;;-142.63;61.93
37170;BME280;23062;13.952;100.608;2022-10-16T18:03:40;754.67;;;-142.63;62.11
37170;BME280;23062;13.952;100.608;2022-10-16T18:08:30;754.62;;;-142.63;62.22
37170;BME280;23062;13.952;100.608;2022-10-16T18:13:22;754.52;;;-142.63;62.16
37170;BME280;23062;13.952;100.608;2022-10-16T18:18:12;754.38;;;-142.63;61.83
37170;BME280;23062;13.952;100.608;2022-10-16T18:23:02;754.46;;;-142.63;62.17
37170;BME280;23062;13.952;100.608;2022-10-16T18:27:54;754.40;;;-142.63;62.41
37170;BME280;23062;13.952;100.608;2022-10-16T18:32:45;754.38;;;-142.63;62.55
37170;BME280;23062;13.952;100.608;2022-10-16T18:37:35;754.34;;;-142.63;62.85
37170;BME280;23062;13.952;100.608;2022-10-16T18:42:26;754.27;;;-142.63;62.85
37170;BME280;23062;13.952;100.608;2022-10-16T18:47:16;754.27;;;-142.63;63.17
37170;BME280;23062;13.952;100.608;2022-10-16T18:52:07;754.20;;;-142.63;62.89
37170;BME280;23062;13.952;100.608;2022-10-16T18:56:57;754.15;;;-142.63;63.20
37170;BME280;23062;13.952;100.608;2022-10-16T19:01:48;754.06;;;-142.63;63.13
37170;BME280;23062;13.952;100.608;2022-10-16T19:06:42;754.10;;;-142.63;63.27
37170;BME280;23062;13.952;100.608;2022-10-16T19:11:33;754.09;;;-142.63;63.23
37170;BME280;23062;13.952;100.608;2022-10-16T19:16:25;754.09;;;-142.63;63.55
37170;BME280;23062;13.952;100.608;2022-10-16T19:21:17;754.06;;;-142.63;63.74
37170;BME280;23062;13.952;100.608;2022-10-16T19:26:11;754.01;;;-142.63;63.66
37170;BME280;23062;13.952;100.608;2022-10-16T19:31:02;753.96;;;-142.63;63.66
37170;BME280;23062;13.952;100.608;2022-10-16T19:35:53;753.96;;;-142.63;63.71
37170;BME280;23062;13.952;100.608;2022-10-16T19:40:43;753.97;;;-142.63;63.74
37170;BME280;23062;13.952;100.608;2022-10-16T19:45:34;753.92;;;-142.63;63.61
37170;BME280;23062;13.952;100.608;2022-10-16T19:50:24;753.94;;;-142.63;63.85
37170;BME280;23062;13.952;100.608;2022-10-16T19:55:14;753.86;;;-142.63;63.57
37170;BME280;23062;13.952;100.608;2022-10-16T20:00:07;753.94;;;-142.63;64.05
37170;BME280;23062;13.952;100.608;2022-10-16T20:04:58;753.96;;;-142.63;64.17
37170;BME280;23062;13.952;100.608;2022-10-16T20:09:48;753.88;;;-142.63;63.85
37170;BME280;23062;13.952;100.608;2022-10-16T20:14:38;753.91;;;-142.63;64.06
37170;BME280;23062;13.952;100.608;2022-10-16T20:19:28;753.92;;;-142.63;64.24
37170;BME280;23062;13.952;100.608;2022-10-16T20:24:19;753.84;;;-142.63;63.89
37170;BME280;23062;13.952;100.608;2022-10-16T20:29:10;753.71;;;-142.63;63.15
37170;BME280;23062;13.952;100.608;2022-10-16T20:34:03;753.77;;;-142.63;63.45
37170;BME280;23062;13.952;100.608;2022-10-16T20:38:54;753.76;;;-142.63;63.57
37170;BME280;23062;13.952;100.608;2022-10-16T20:43:46;753.77;;;-142.63;63.40
37170;BME280;23062;13.952;100.608;2022-10-16T20:48:37;753.78;;;-142.63;63.15
37170;BME280;23062;13.952;100.608;2022-10-16T20:53:29;753.69;;;-142.63;62.92
37170;BME280;23062;13.952;100.608;2022-10-16T20:58:20;753.72;;;-142.63;62.97
37170;BME280;23062;13.952;100.608;2022-10-16T21:03:11;754.00;;;-142.63;65.03
37170;BME280;23062;13.952;100.608;2022-10-16T21:08:02;754.05;;;-142.63;65.94
37170;BME280;23062;13.952;100.608;2022-10-16T21:12:54;754.08;;;-142.63;66.36
37170;BME280;23062;13.952;100.608;2022-10-16T21:17:44;754.09;;;-142.63;66.34
37170;BME280;23062;13.952;100.608;2022-10-16T21:22:35;753.98;;;-142.63;66.38
37170;BME280;23062;13.952;100.608;2022-10-16T21:27:26;754.07;;;-142.63;66.77
37170;BME280;23062;13.952;100.608;2022-10-16T21:32:16;754.11;;;-142.63;67.19
37170;BME280;23062;13.952;100.608;2022-10-16T21:37:09;754.14;;;-142.63;67.30
37170;BME280;23062;13.952;100.608;2022-10-16T21:42:01;754.13;;;-142.63;67.22
37170;BME280;23062;13.952;100.608;2022-10-16T21:46:51;754.24;;;-142.63;68.25
37170;BME280;23062;13.952;100.608;2022-10-16T21:51:44;754.23;;;-142.63;71.23
37170;BME280;23062;13.952;100.608;2022-10-16T21:56:35;754.31;;;-142.63;74.00
37170;BME280;23062;13.952;100.608;2022-10-16T22:01:27;754.34;;;-142.63;74.73
37170;BME280;23062;13.952;100.608;2022-10-16T22:06:22;754.30;;;-142.63;73.56
37170;BME280;23062;13.952;100.608;2022-10-16T22:11:21;754.32;;;-142.63;72.94
37170;BME280;23062;13.952;100.608;2022-10-16T22:16:11;754.40;;;-142.63;74.40
37170;BME280;23062;13.952;100.608;2022-10-16T22:21:02;754.35;;;-142.63;73.77
37170;BME280;23062;13.952;100.608;2022-10-16T22:25:59;754.31;;;-142.63;73.79
37170;BME280;23062;13.952;100.608;2022-10-16T22:30:49;754.32;;;-142.63;73.47
37170;BME280;23062;13.952;100.608;2022-10-16T22:35:40;754.44;;;-142.63;76.17
37170;BME280;23062;13.952;100.608;2022-10-16T22:40:32;754.54;;;-142.63;76.87
37170;BME280;23062;13.952;100.608;2022-10-16T22:45:23;754.63;;;-142.63;75.88
37170;BME280;23062;13.952;100.608;2022-10-16T22:50:13;754.65;;;-142.63;75.67
37170;BME280;23062;13.952;100.608;2022-10-16T22:55:04;754.58;;;-142.63;73.96
37170;BME280;23062;13.952;100.608;2022-10-16T22:59:54;754.62;;;-142.63;75.26
37170;BME280;23062;13.952;100.608;2022-10-16T23:04:45;754.75;;;-142.63;76.06
37170;BME280;23062;13.952;100.608;2022-10-16T23:09:35;754.81;;;-142.63;76.06
37170;BME280;23062;13.952;100.608;2022-10-16T23:14:26;754.87;;;-142.63;76.80
37170;BME280;23062;13.952;100.608;2022-10-16T23:19:16;754.79;;;-142.63;77.46
37170;BME280;23062;13.952;100.608;2022-10-16T23:24:07;754.84;;;-142.63;78.66
37170;BME280;23062;13.952;100.608;2022-10-16T23:28:58;754.88;;;-142.63;78.12
37170;BME280;23062;13.952;100.608;2022-10-16T23:33:49;754.89;;;-142.63;78.36
37170;BME280;23062;13.952;100.608;2022-10-16T23:38:39;754.98;;;-142.63;80.08
37170;BME280;23062;13.952;100.608;2022-10-16T23:43:31;755.02;;;-142.63;80.71
37170;BME280;23062;13.952;100.608;2022-10-16T23:48:22;754.92;;;-142.63;80.79
37170;BME280;23062;13.952;100.608;2022-10-16T23:53:13;754.99;;;-142.63;81.83
37170;BME280;23062;13.952;100.608;2022-10-16T23:58:04;755.02;;;-142.63;82.06
